sensor_id;sensor_type;location;lat;lon;timestamp;P1;durP1;ratioP1;P2;durP2;ratioP2
870;SDS011;422;51.280;7.236;2023-05-07T00:02:03;7.57;;;5.37;;
870;SDS011;422;51.280;7.236;2023-05-07T00:04:30;6.37;;;5.20;;
870;SDS011;422;51.280;7.236;2023-05-07T00:07:01;7.23;;;5.90;;
870;SDS011;422;51.280;7.236;2023-05-07T00:09:29;8.50;;;5.50;;
870;SDS011;422;51.280;7.236;2023-05-07T00:11:56;7.20;;;5.80;;
870;SDS011;422;51.280;7.236;2023-05-07T00:14:24;7.30;;;4.97;;
870;SDS011;422;51.280;7.236;2023-05-07T00:16:52;6.60;;;6.00;;
870;SDS011;422;51.280;7.236;2023-05-07T00:19:19;6.13;;;5.53;;
870;SDS011;422;51.280;7.236;2023-05-07T00:21:46;8.60;;;6.30;;
870;SDS011;422;51.280;7.236;2023-05-07T00:24:13;5.57;;;5.07;;
870;SDS011;422;51.280;7.236;2023-05-07T00:26:40;6.23;;;5.63;;
870;SDS011;422;51.280;7.236;2023-05-07T00:29:07;8.53;;;5.37;;
870;SDS011;422;51.280;7.236;2023-05-07T00:31:36;6.33;;;5.10;;
870;SDS011;422;51.280;7.236;2023-05-07T00:34:03;5.33;;;4.83;;
870;SDS011;422;51.280;7.236;2023-05-07T00:36:31;5.80;;;5.20;;
870;SDS011;422;51.280;7.236;2023-05-07T00:38:59;5.60;;;5.10;;
870;SDS011;422;51.280;7.236;2023-05-07T00:41:28;6.93;;;6.23;;
870;SDS011;422;51.280;7.236;2023-05-07T00:43:55;8.20;;;5.00;;
870;SDS011;422;51.280;7.236;2023-05-07T00:46:23;6.13;;;5.63;;
870;SDS011;422;51.280;7.236;2023-05-07T00:48:52;6.90;;;5.30;;
870;SDS011;422;51.280;7.236;2023-05-07T00:51:20;5.53;;;4.83;;
870;SDS011;422;51.280;7.236;2023-05-07T00:53:50;6.80;;;6.10;;
870;SDS011;422;51.280;7.236;2023-05-07T00:56:17;5.40;;;4.90;;
870;SDS011;422;51.280;7.236;2023-05-07T00:58:44;6.03;;;5.40;;
870;SDS011;422;51.280;7.236;2023-05-07T01:01:11;5.93;;;5.33;;
870;SDS011;422;51.280;7.236;2023-05-07T01:03:41;7.10;;;5.60;;
870;SDS011;422;51.280;7.236;2023-05-07T01:06:09;5.60;;;5.10;;
870;SDS011;422;51.280;7.236;2023-05-07T01:08:42;6.10;;;5.43;;
870;SDS011;422;51.280;7.236;2023-05-07T01:11:10;5.83;;;5.23;;
870;SDS011;422;51.280;7.236;2023-05-07T01:13:38;5.73;;;4.70;;
870;SDS011;422;51.280;7.236;2023-05-07T01:16:06;6.17;;;5.00;;
870;SDS011;422;51.280;7.236;2023-05-07T01:18:35;5.97;;;4.53;;
870;SDS011;422;51.280;7.236;2023-05-07T01:21:04;5.50;;;5.00;;
870;SDS011;422;51.280;7.236;2023-05-07T01:23:33;6.63;;;4.90;;
870;SDS011;422;51.280;7.236;2023-05-07T01:26:01;6.13;;;4.90;;
870;SDS011;422;51.280;7.236;2023-05-07T01:28:28;6.53;;;5.77;;
870;SDS011;422;51.280;7.236;2023-05-07T01:30:58;6.57;;;4.87;;
870;SDS011;422;51.280;7.236;2023-05-07T01:33:29;5.63;;;5.10;;
870;SDS011;422;51.280;7.236;2023-05-07T01:35:59;6.67;;;5.60;;
870;SDS011;422;51.280;7.236;2023-05-07T01:38:29;8.60;;;5.37;;
870;SDS011;422;51.280;7.236;2023-05-07T01:40:58;5.50;;;5.00;;
870;SDS011;422;51.280;7.236;2023-05-07T01:43:25;5.57;;;5.07;;
870;SDS011;422;51.280;7.236;2023-05-07T01:45:53;9.70;;;5.33;;
870;SDS011;422;51.280;7.236;2023-05-07T01:48:21;6.27;;;5.67;;
870;SDS011;422;51.280;7.236;2023-05-07T01:50:49;6.03;;;5.47;;
870;SDS011;422;51.280;7.236;2023-05-07T01:53:16;6.27;;;5.37;;
870;SDS011;422;51.280;7.236;2023-05-07T01:55:43;6.43;;;5.70;;
870;SDS011;422;51.280;7.236;2023-05-07T01:58:12;5.50;;;4.97;;
870;SDS011;422;51.280;7.236;2023-05-07T02:00:39;6.30;;;5.10;;
870;SDS011;422;51.280;7.236;2023-05-07T02:03:07;6.10;;;5.30;;
870;SDS011;422;51.280;7.236;2023-05-07T02:05:34;5.93;;;5.13;;
870;SDS011;422;51.280;7.236;2023-05-07T02:08:01;5.70;;;4.67;;
870;SDS011;422;51.280;7.236;2023-05-07T02:10:28;5.47;;;4.90;;
870;SDS011;422;51.280;7.236;2023-05-07T02:12:56;8.87;;;5.07;;
870;SDS011;422;51.280;7.236;2023-05-07T02:15:24;5.33;;;4.83;;
870;SDS011;422;51.280;7.236;2023-05-07T02:17:58;6.20;;;4.83;;
870;SDS011;422;51.280;7.236;2023-05-07T02:20:26;5.13;;;4.63;;
870;SDS011;422;51.280;7.236;2023-05-07T02:22:53;6.60;;;5.33;;
870;SDS011;422;51.280;7.236;2023-05-07T02:25:21;6.00;;;5.13;;
870;SDS011;422;51.280;7.236;2023-05-07T02:27:48;4.63;;;4.03;;
870;SDS011;422;51.280;7.236;2023-05-07T02:30:15;7.00;;;5.27;;
870;SDS011;422;51.280;7.236;2023-05-07T02:32:44;5.60;;;4.67;;
870;SDS011;422;51.280;7.236;2023-05-07T02:35:11;5.53;;;5.00;;
870;SDS011;422;51.280;7.236;2023-05-07T02:37:38;4.37;;;3.90;;
870;SDS011;422;51.280;7.236;2023-05-07T02:40:06;6.10;;;5.20;;
870;SDS011;422;51.280;7.236;2023-05-07T02:42:34;6.13;;;5.00;;
870;SDS011;422;51.280;7.236;2023-05-07T02:45:01;8.90;;;5.10;;
870;SDS011;422;51.280;7.236;2023-05-07T02:47:28;4.83;;;4.33;;
870;SDS011;422;51.280;7.236;2023-05-07T02:49:57;6.37;;;5.00;;
870;SDS011;422;51.280;7.236;2023-05-07T02:52:24;5.20;;;4.70;;
870;SDS011;422;51.280;7.236;2023-05-07T02:54:51;5.03;;;4.57;;
870;SDS011;422;51.280;7.236;2023-05-07T02:57:18;5.10;;;4.20;;
870;SDS011;422;51.280;7.236;2023-05-07T02:59:46;6.00;;;4.67;;
870;SDS011;422;51.280;7.236;2023-05-07T03:02:13;7.20;;;4.73;;
870;SDS011;422;51.280;7.236;2023-05-07T03:04:40;6.70;;;5.00;;
870;SDS011;422;51.280;7.236;2023-05-07T03:07:08;5.70;;;5.10;;
870;SDS011;422;51.280;7.236;2023-05-07T03:09:36;5.20;;;4.70;;
870;SDS011;422;51.280;7.236;2023-05-07T03:12:03;5.10;;;4.60;;
870;SDS011;422;51.280;7.236;2023-05-07T03:14:30;5.20;;;4.70;;
870;SDS011;422;51.280;7.236;2023-05-07T03:16:57;5.90;;;5.40;;
870;SDS011;422;51.280;7.236;2023-05-07T03:19:24;6.20;;;5.60;;
870;SDS011;422;51.280;7.236;2023-05-07T03:21:52;5.57;;;5.07;;
870;SDS011;422;51.280;7.236;2023-05-07T03:24:20;7.13;;;5.63;;
870;SDS011;422;51.280;7.236;2023-05-07T03:26:47;6.13;;;5.10;;
870;SDS011;422;51.280;7.236;2023-05-07T03:29:15;5.30;;;4.80;;
870;SDS011;422;51.280;7.236;2023-05-07T03:31:42;5.00;;;4.60;;
870;SDS011;422;51.280;7.236;2023-05-07T03:34:10;6.47;;;5.30;;
870;SDS011;422;51.280;7.236;2023-05-07T03:36:37;5.97;;;5.33;;
870;SDS011;422;51.280;7.236;2023-05-07T03:39:04;6.57;;;4.73;;
870;SDS011;422;51.280;7.236;2023-05-07T03:41:33;5.83;;;4.90;;
870;SDS011;422;51.280;7.236;2023-05-07T03:44:00;4.87;;;4.43;;
870;SDS011;422;51.280;7.236;2023-05-07T03:46:27;8.13;;;4.90;;
870;SDS011;422;51.280;7.236;2023-05-07T03:48:55;5.03;;;4.53;;
870;SDS011;422;51.280;7.236;2023-05-07T03:51:22;5.67;;;4.80;;
870;SDS011;422;51.280;7.236;2023-05-07T03:53:49;6.13;;;5.10;;
870;SDS011;422;51.280;7.236;2023-05-07T03:56:18;5.13;;;4.63;;
870;SDS011;422;51.280;7.236;2023-05-07T03:58:47;5.63;;;5.13;;
870;SDS011;422;51.280;7.236;2023-05-07T04:01:14;5.33;;;4.80;;
870;SDS011;422;51.280;7.236;2023-05-07T04:03:42;8.63;;;4.93;;
870;SDS011;422;51.280;7.236;2023-05-07T04:06:09;6.17;;;5.30;;
870;SDS011;422;51.280;7.236;2023-05-07T04:08:37;5.40;;;4.70;;
870;SDS011;422;51.280;7.236;2023-05-07T04:11:04;6.60;;;4.67;;
870;SDS011;422;51.280;7.236;2023-05-07T04:13:31;5.47;;;4.10;;
870;SDS011;422;51.280;7.236;2023-05-07T04:16:00;5.43;;;4.93;;
870;SDS011;422;51.280;7.236;2023-05-07T04:18:28;4.80;;;4.30;;
870;SDS011;422;51.280;7.236;2023-05-07T04:20:55;5.90;;;4.53;;
870;SDS011;422;51.280;7.236;2023-05-07T04:23:22;4.70;;;4.13;;
870;SDS011;422;51.280;7.236;2023-05-07T04:25:50;4.80;;;4.30;;
870;SDS011;422;51.280;7.236;2023-05-07T04:28:17;6.00;;;5.13;;
870;SDS011;422;51.280;7.236;2023-05-07T04:30:44;5.37;;;4.80;;
870;SDS011;422;51.280;7.236;2023-05-07T04:33:13;5.23;;;4.20;;
870;SDS011;422;51.280;7.236;2023-05-07T04:35:41;6.13;;;4.47;;
870;SDS011;422;51.280;7.236;2023-05-07T04:38:09;5.30;;;4.80;;
870;SDS011;422;51.280;7.236;2023-05-07T04:40:36;6.00;;;5.50;;
870;SDS011;422;51.280;7.236;2023-05-07T04:43:04;5.63;;;5.13;;
870;SDS011;422;51.280;7.236;2023-05-07T04:45:32;7.33;;;4.50;;
870;SDS011;422;51.280;7.236;2023-05-07T04:47:59;5.10;;;4.60;;
870;SDS011;422;51.280;7.236;2023-05-07T04:50:28;7.57;;;5.33;;
870;SDS011;422;51.280;7.236;2023-05-07T04:52:55;7.13;;;4.70;;
870;SDS011;422;51.280;7.236;2023-05-07T04:55:22;5.57;;;5.00;;
870;SDS011;422;51.280;7.236;2023-05-07T04:57:49;4.67;;;4.23;;
870;SDS011;422;51.280;7.236;2023-05-07T05:00:18;5.90;;;4.33;;
870;SDS011;422;51.280;7.236;2023-05-07T05:02:45;5.10;;;4.60;;
870;SDS011;422;51.280;7.236;2023-05-07T05:05:12;6.00;;;5.23;;
870;SDS011;422;51.280;7.236;2023-05-07T05:07:41;4.80;;;4.40;;
870;SDS011;422;51.280;7.236;2023-05-07T05:10:08;5.80;;;4.87;;
870;SDS011;422;51.280;7.236;2023-05-07T05:12:36;5.10;;;4.60;;
870;SDS011;422;51.280;7.236;2023-05-07T05:15:03;5.00;;;4.60;;
870;SDS011;422;51.280;7.236;2023-05-07T05:17:31;6.73;;;4.90;;
870;SDS011;422;51.280;7.236;2023-05-07T05:20:01;5.57;;;4.77;;
870;SDS011;422;51.280;7.236;2023-05-07T05:22:28;9.90;;;5.30;;
870;SDS011;422;51.280;7.236;2023-05-07T05:24:58;5.53;;;5.03;;
870;SDS011;422;51.280;7.236;2023-05-07T05:27:25;7.70;;;6.10;;
870;SDS011;422;51.280;7.236;2023-05-07T05:29:53;5.70;;;5.10;;
870;SDS011;422;51.280;7.236;2023-05-07T05:32:20;5.70;;;5.10;;
870;SDS011;422;51.280;7.236;2023-05-07T05:34:47;5.80;;;5.30;;
870;SDS011;422;51.280;7.236;2023-05-07T05:37:14;6.53;;;5.93;;
870;SDS011;422;51.280;7.236;2023-05-07T05:39:41;6.37;;;5.57;;
870;SDS011;422;51.280;7.236;2023-05-07T05:42:10;8.57;;;5.40;;
870;SDS011;422;51.280;7.236;2023-05-07T05:44:37;8.93;;;4.73;;
870;SDS011;422;51.280;7.236;2023-05-07T05:47:05;6.00;;;5.40;;
870;SDS011;422;51.280;7.236;2023-05-07T05:49:32;6.43;;;5.73;;
870;SDS011;422;51.280;7.236;2023-05-07T05:51:59;8.63;;;6.70;;
870;SDS011;422;51.280;7.236;2023-05-07T05:54:26;7.50;;;6.80;;
870;SDS011;422;51.280;7.236;2023-05-07T05:56:53;5.33;;;4.70;;
870;SDS011;422;51.280;7.236;2023-05-07T05:59:22;9.40;;;5.30;;
870;SDS011;422;51.280;7.236;2023-05-07T06:01:49;5.87;;;5.27;;
870;SDS011;422;51.280;7.236;2023-05-07T06:04:17;8.13;;;5.60;;
870;SDS011;422;51.280;7.236;2023-05-07T06:06:44;4.13;;;3.73;;
870;SDS011;422;51.280;7.236;2023-05-07T06:09:11;5.70;;;4.10;;
870;SDS011;422;51.280;7.236;2023-05-07T06:11:38;3.90;;;3.50;;
870;SDS011;422;51.280;7.236;2023-05-07T06:14:06;5.27;;;4.00;;
870;SDS011;422;51.280;7.236;2023-05-07T06:16:34;3.93;;;3.53;;
870;SDS011;422;51.280;7.236;2023-05-07T06:19:03;4.83;;;4.07;;
870;SDS011;422;51.280;7.236;2023-05-07T06:21:30;5.63;;;3.73;;
870;SDS011;422;51.280;7.236;2023-05-07T06:23:57;4.10;;;3.70;;
870;SDS011;422;51.280;7.236;2023-05-07T06:26:24;5.13;;;3.47;;
870;SDS011;422;51.280;7.236;2023-05-07T06:28:51;4.00;;;3.60;;
870;SDS011;422;51.280;7.236;2023-05-07T06:31:19;3.77;;;3.43;;
870;SDS011;422;51.280;7.236;2023-05-07T06:33:48;6.30;;;3.83;;
870;SDS011;422;51.280;7.236;2023-05-07T06:36:15;4.10;;;3.70;;
870;SDS011;422;51.280;7.236;2023-05-07T06:38:42;4.73;;;4.10;;
870;SDS011;422;51.280;7.236;2023-05-07T06:41:09;5.93;;;4.10;;
870;SDS011;422;51.280;7.236;2023-05-07T06:43:36;4.30;;;3.90;;
870;SDS011;422;51.280;7.236;2023-05-07T06:46:04;6.20;;;3.70;;
870;SDS011;422;51.280;7.236;2023-05-07T06:48:31;4.70;;;4.20;;
870;SDS011;422;51.280;7.236;2023-05-07T06:51:00;5.83;;;3.50;;
870;SDS011;422;51.280;7.236;2023-05-07T06:53:27;4.10;;;3.70;;
870;SDS011;422;51.280;7.236;2023-05-07T06:55:55;5.27;;;3.40;;
870;SDS011;422;51.280;7.236;2023-05-07T06:58:23;8.97;;;3.10;;
870;SDS011;422;51.280;7.236;2023-05-07T07:00:50;3.80;;;3.50;;
870;SDS011;422;51.280;7.236;2023-05-07T07:03:17;4.07;;;3.67;;
870;SDS011;422;51.280;7.236;2023-05-07T07:05:44;3.77;;;3.47;;
870;SDS011;422;51.280;7.236;2023-05-07T07:08:13;5.10;;;3.93;;
870;SDS011;422;51.280;7.236;2023-05-07T07:10:42;3.57;;;3.27;;
870;SDS011;422;51.280;7.236;2023-05-07T07:13:09;4.03;;;3.40;;
870;SDS011;422;51.280;7.236;2023-05-07T07:15:36;3.90;;;3.00;;
870;SDS011;422;51.280;7.236;2023-05-07T07:18:03;4.53;;;4.00;;
870;SDS011;422;51.280;7.236;2023-05-07T07:20:31;3.47;;;2.57;;
870;SDS011;422;51.280;7.236;2023-05-07T07:22:58;3.47;;;3.17;;
870;SDS011;422;51.280;7.236;2023-05-07T07:25:27;11.57;;;3.67;;
870;SDS011;422;51.280;7.236;2023-05-07T07:27:54;4.50;;;4.10;;
870;SDS011;422;51.280;7.236;2023-05-07T07:30:21;3.63;;;2.90;;
870;SDS011;422;51.280;7.236;2023-05-07T07:32:48;5.53;;;2.37;;
870;SDS011;422;51.280;7.236;2023-05-07T07:35:16;4.40;;;3.37;;
870;SDS011;422;51.280;7.236;2023-05-07T07:37:44;3.50;;;3.20;;
870;SDS011;422;51.280;7.236;2023-05-07T07:40:11;3.17;;;2.93;;
870;SDS011;422;51.280;7.236;2023-05-07T07:42:40;4.90;;;3.97;;
870;SDS011;422;51.280;7.236;2023-05-07T07:45:07;3.20;;;2.90;;
870;SDS011;422;51.280;7.236;2023-05-07T07:47:35;3.73;;;3.03;;
870;SDS011;422;51.280;7.236;2023-05-07T07:50:02;3.50;;;2.90;;
870;SDS011;422;51.280;7.236;2023-05-07T07:52:30;2.90;;;2.57;;
870;SDS011;422;51.280;7.236;2023-05-07T07:54:57;4.20;;;3.50;;
870;SDS011;422;51.280;7.236;2023-05-07T07:57:24;4.47;;;2.73;;
870;SDS011;422;51.280;7.236;2023-05-07T07:59:53;3.93;;;3.20;;
870;SDS011;422;51.280;7.236;2023-05-07T08:02:20;3.00;;;2.70;;
870;SDS011;422;51.280;7.236;2023-05-07T08:04:47;3.47;;;2.77;;
870;SDS011;422;51.280;7.236;2023-05-07T08:07:14;7.00;;;3.47;;
870;SDS011;422;51.280;7.236;2023-05-07T08:09:43;4.07;;;3.60;;
870;SDS011;422;51.280;7.236;2023-05-07T08:12:10;2.97;;;2.70;;
870;SDS011;422;51.280;7.236;2023-05-07T08:14:38;3.37;;;3.07;;
870;SDS011;422;51.280;7.236;2023-05-07T08:17:07;3.60;;;3.30;;
870;SDS011;422;51.280;7.236;2023-05-07T08:19:35;4.00;;;3.10;;
870;SDS011;422;51.280;7.236;2023-05-07T08:22:02;3.70;;;3.00;;
870;SDS011;422;51.280;7.236;2023-05-07T08:24:30;3.07;;;2.87;;
870;SDS011;422;51.280;7.236;2023-05-07T08:26:57;4.00;;;3.60;;
870;SDS011;422;51.280;7.236;2023-05-07T08:29:25;3.10;;;2.80;;
870;SDS011;422;51.280;7.236;2023-05-07T08:31:52;4.20;;;2.90;;
870;SDS011;422;51.280;7.236;2023-05-07T08:34:21;2.93;;;2.60;;
870;SDS011;422;51.280;7.236;2023-05-07T08:36:48;2.87;;;2.43;;
870;SDS011;422;51.280;7.236;2023-05-07T08:39:15;3.43;;;3.13;;
870;SDS011;422;51.280;7.236;2023-05-07T08:41:43;3.50;;;3.20;;
870;SDS011;422;51.280;7.236;2023-05-07T08:44:12;2.83;;;2.63;;
870;SDS011;422;51.280;7.236;2023-05-07T08:46:40;3.10;;;2.80;;
870;SDS011;422;51.280;7.236;2023-05-07T08:49:08;3.03;;;2.47;;
870;SDS011;422;51.280;7.236;2023-05-07T08:51:37;2.90;;;2.70;;
870;SDS011;422;51.280;7.236;2023-05-07T08:54:04;4.83;;;3.13;;
870;SDS011;422;51.280;7.236;2023-05-07T08:56:33;2.90;;;2.50;;
870;SDS011;422;51.280;7.236;2023-05-07T08:59:00;4.37;;;2.37;;
870;SDS011;422;51.280;7.236;2023-05-07T09:01:28;2.57;;;2.37;;
870;SDS011;422;51.280;7.236;2023-05-07T09:03:56;4.03;;;2.27;;
870;SDS011;422;51.280;7.236;2023-05-07T09:06:23;2.47;;;2.27;;
870;SDS011;422;51.280;7.236;2023-05-07T09:08:53;2.80;;;2.57;;
870;SDS011;422;51.280;7.236;2023-05-07T09:11:22;3.13;;;2.93;;
870;SDS011;422;51.280;7.236;2023-05-07T09:13:53;3.57;;;3.03;;
870;SDS011;422;51.280;7.236;2023-05-07T09:16:21;3.63;;;2.50;;
870;SDS011;422;51.280;7.236;2023-05-07T09:18:50;3.00;;;2.70;;
870;SDS011;422;51.280;7.236;2023-05-07T09:21:19;2.30;;;2.10;;
870;SDS011;422;51.280;7.236;2023-05-07T09:23:48;2.60;;;2.40;;
870;SDS011;422;51.280;7.236;2023-05-07T09:26:18;2.73;;;2.50;;
870;SDS011;422;51.280;7.236;2023-05-07T09:28:47;3.03;;;2.70;;
870;SDS011;422;51.280;7.236;2023-05-07T09:31:15;2.87;;;2.20;;
870;SDS011;422;51.280;7.236;2023-05-07T09:33:42;3.00;;;2.80;;
870;SDS011;422;51.280;7.236;2023-05-07T09:36:09;2.77;;;2.57;;
870;SDS011;422;51.280;7.236;2023-05-07T09:38:37;3.83;;;2.43;;
870;SDS011;422;51.280;7.236;2023-05-07T09:41:05;2.70;;;2.50;;
870;SDS011;422;51.280;7.236;2023-05-07T09:43:34;2.97;;;2.67;;
870;SDS011;422;51.280;7.236;2023-05-07T09:46:02;2.73;;;2.53;;
870;SDS011;422;51.280;7.236;2023-05-07T09:48:34;2.40;;;2.20;;
870;SDS011;422;51.280;7.236;2023-05-07T09:51:06;2.50;;;2.30;;
870;SDS011;422;51.280;7.236;2023-05-07T09:53:48;3.03;;;2.80;;
870;SDS011;422;51.280;7.236;2023-05-07T09:56:16;2.60;;;2.40;;
870;SDS011;422;51.280;7.236;2023-05-07T09:58:46;2.60;;;2.10;;
870;SDS011;422;51.280;7.236;2023-05-07T10:01:15;2.90;;;2.60;;
870;SDS011;422;51.280;7.236;2023-05-07T10:03:44;3.30;;;2.70;;
870;SDS011;422;51.280;7.236;2023-05-07T10:06:12;2.60;;;2.40;;
870;SDS011;422;51.280;7.236;2023-05-07T10:08:41;2.50;;;2.30;;
870;SDS011;422;51.280;7.236;2023-05-07T10:11:09;3.23;;;2.93;;
870;SDS011;422;51.280;7.236;2023-05-07T10:13:37;3.13;;;2.83;;
870;SDS011;422;51.280;7.236;2023-05-07T10:16:06;3.53;;;2.87;;
870;SDS011;422;51.280;7.236;2023-05-07T10:18:33;3.63;;;2.57;;
870;SDS011;422;51.280;7.236;2023-05-07T10:21:02;3.40;;;3.10;;
870;SDS011;422;51.280;7.236;2023-05-07T10:23:32;2.73;;;2.40;;
870;SDS011;422;51.280;7.236;2023-05-07T10:26:00;3.13;;;2.93;;
870;SDS011;422;51.280;7.236;2023-05-07T10:28:30;4.57;;;2.67;;
870;SDS011;422;51.280;7.236;2023-05-07T10:31:08;4.00;;;3.00;;
870;SDS011;422;51.280;7.236;2023-05-07T10:33:45;3.40;;;2.70;;
870;SDS011;422;51.280;7.236;2023-05-07T10:36:16;3.23;;;2.93;;
870;SDS011;422;51.280;7.236;2023-05-07T10:38:44;3.07;;;2.80;;
870;SDS011;422;51.280;7.236;2023-05-07T10:41:12;2.47;;;2.20;;
870;SDS011;422;51.280;7.236;2023-05-07T10:43:42;3.43;;;3.13;;
870;SDS011;422;51.280;7.236;2023-05-07T10:46:13;10.20;;;2.87;;
870;SDS011;422;51.280;7.236;2023-05-07T10:51:37;3.17;;;2.40;;
870;SDS011;422;51.280;7.236;2023-05-07T10:54:21;3.00;;;2.70;;
870;SDS011;422;51.280;7.236;2023-05-07T10:56:49;2.67;;;2.47;;
870;SDS011;422;51.280;7.236;2023-05-07T10:59:36;3.53;;;2.90;;
870;SDS011;422;51.280;7.236;2023-05-07T11:02:10;3.13;;;2.87;;
870;SDS011;422;51.280;7.236;2023-05-07T11:04:39;2.53;;;2.33;;
870;SDS011;422;51.280;7.236;2023-05-07T11:09:59;5.90;;;3.20;;
870;SDS011;422;51.280;7.236;2023-05-07T11:15:39;6.80;;;3.50;;
870;SDS011;422;51.280;7.236;2023-05-07T11:18:10;4.40;;;3.70;;
870;SDS011;422;51.280;7.236;2023-05-07T11:20:45;5.17;;;3.80;;
870;SDS011;422;51.280;7.236;2023-05-07T11:26:43;3.70;;;3.20;;
870;SDS011;422;51.280;7.236;2023-05-07T11:29:12;6.07;;;3.60;;
870;SDS011;422;51.280;7.236;2023-05-07T11:31:41;3.93;;;3.60;;
870;SDS011;422;51.280;7.236;2023-05-07T11:34:10;4.20;;;3.30;;
870;SDS011;422;51.280;7.236;2023-05-07T11:36:41;6.10;;;3.63;;
870;SDS011;422;51.280;7.236;2023-05-07T11:41:53;5.10;;;3.97;;
870;SDS011;422;51.280;7.236;2023-05-07T11:44:20;4.40;;;4.00;;
870;SDS011;422;51.280;7.236;2023-05-07T11:46:47;4.13;;;3.47;;
870;SDS011;422;51.280;7.236;2023-05-07T11:49:16;4.90;;;3.20;;
870;SDS011;422;51.280;7.236;2023-05-07T11:51:44;6.43;;;3.67;;
870;SDS011;422;51.280;7.236;2023-05-07T11:54:12;3.90;;;3.30;;
870;SDS011;422;51.280;7.236;2023-05-07T11:56:43;4.23;;;3.87;;
870;SDS011;422;51.280;7.236;2023-05-07T11:59:16;6.93;;;3.43;;
870;SDS011;422;51.280;7.236;2023-05-07T12:01:45;5.10;;;3.30;;
870;SDS011;422;51.280;7.236;2023-05-07T12:04:13;3.50;;;2.97;;
870;SDS011;422;51.280;7.236;2023-05-07T12:06:47;5.50;;;3.33;;
870;SDS011;422;51.280;7.236;2023-05-07T12:09:16;4.00;;;3.67;;
870;SDS011;422;51.280;7.236;2023-05-07T12:11:45;6.30;;;4.53;;
870;SDS011;422;51.280;7.236;2023-05-07T12:14:12;6.30;;;4.37;;
870;SDS011;422;51.280;7.236;2023-05-07T12:16:40;5.73;;;4.17;;
870;SDS011;422;51.280;7.236;2023-05-07T12:19:08;6.50;;;5.10;;
870;SDS011;422;51.280;7.236;2023-05-07T12:21:37;5.93;;;5.43;;
870;SDS011;422;51.280;7.236;2023-05-07T12:24:06;7.03;;;5.93;;
870;SDS011;422;51.280;7.236;2023-05-07T12:26:37;5.63;;;5.03;;
870;SDS011;422;51.280;7.236;2023-05-07T12:29:05;6.10;;;5.50;;
870;SDS011;422;51.280;7.236;2023-05-07T12:31:33;6.00;;;5.40;;
870;SDS011;422;51.280;7.236;2023-05-07T12:34:00;6.70;;;6.10;;
870;SDS011;422;51.280;7.236;2023-05-07T12:36:27;8.03;;;6.57;;
870;SDS011;422;51.280;7.236;2023-05-07T12:39:04;7.17;;;6.03;;
870;SDS011;422;51.280;7.236;2023-05-07T12:41:34;7.50;;;6.90;;
870;SDS011;422;51.280;7.236;2023-05-07T12:44:04;9.60;;;7.67;;
870;SDS011;422;51.280;7.236;2023-05-07T12:46:32;8.70;;;7.90;;
870;SDS011;422;51.280;7.236;2023-05-07T12:49:04;7.70;;;7.03;;
870;SDS011;422;51.280;7.236;2023-05-07T12:51:32;8.70;;;7.87;;
870;SDS011;422;51.280;7.236;2023-05-07T12:54:01;8.37;;;7.67;;
870;SDS011;422;51.280;7.236;2023-05-07T12:56:30;7.63;;;6.83;;
870;SDS011;422;51.280;7.236;2023-05-07T12:59:02;7.97;;;7.20;;
870;SDS011;422;51.280;7.236;2023-05-07T13:01:29;9.67;;;7.20;;
870;SDS011;422;51.280;7.236;2023-05-07T13:04:00;5.77;;;5.13;;
870;SDS011;422;51.280;7.236;2023-05-07T13:06:29;5.70;;;5.20;;
870;SDS011;422;51.280;7.236;2023-05-07T13:08:57;5.10;;;4.60;;
870;SDS011;422;51.280;7.236;2023-05-07T13:11:24;5.23;;;4.80;;
870;SDS011;422;51.280;7.236;2023-05-07T13:13:53;4.20;;;3.80;;
870;SDS011;422;51.280;7.236;2023-05-07T13:16:20;6.00;;;2.90;;
870;SDS011;422;51.280;7.236;2023-05-07T13:18:47;3.10;;;2.80;;
870;SDS011;422;51.280;7.236;2023-05-07T13:21:15;6.87;;;3.77;;
870;SDS011;422;51.280;7.236;2023-05-07T13:23:42;3.37;;;3.07;;
870;SDS011;422;51.280;7.236;2023-05-07T13:26:09;4.50;;;3.60;;
870;SDS011;422;51.280;7.236;2023-05-07T13:28:36;4.87;;;3.23;;
870;SDS011;422;51.280;7.236;2023-05-07T13:31:05;4.13;;;3.20;;
870;SDS011;422;51.280;7.236;2023-05-07T13:33:32;3.80;;;3.50;;
870;SDS011;422;51.280;7.236;2023-05-07T13:36:00;3.60;;;3.30;;
870;SDS011;422;51.280;7.236;2023-05-07T13:38:29;3.07;;;2.77;;
870;SDS011;422;51.280;7.236;2023-05-07T13:40:57;5.20;;;3.60;;
870;SDS011;422;51.280;7.236;2023-05-07T13:43:24;3.60;;;3.30;;
870;SDS011;422;51.280;7.236;2023-05-07T13:45:51;3.13;;;2.83;;
870;SDS011;422;51.280;7.236;2023-05-07T13:48:20;4.40;;;3.20;;
870;SDS011;422;51.280;7.236;2023-05-07T13:50:48;3.70;;;3.37;;
870;SDS011;422;51.280;7.236;2023-05-07T13:53:15;8.70;;;3.67;;
870;SDS011;422;51.280;7.236;2023-05-07T13:55:43;4.37;;;3.97;;
870;SDS011;422;51.280;7.236;2023-05-07T13:58:10;4.13;;;3.80;;
870;SDS011;422;51.280;7.236;2023-05-07T14:00:38;4.40;;;4.00;;
870;SDS011;422;51.280;7.236;2023-05-07T14:03:05;4.70;;;4.33;;
870;SDS011;422;51.280;7.236;2023-05-07T14:05:34;5.50;;;5.00;;
870;SDS011;422;51.280;7.236;2023-05-07T14:08:02;8.63;;;5.90;;
870;SDS011;422;51.280;7.236;2023-05-07T14:10:30;8.03;;;7.07;;
870;SDS011;422;51.280;7.236;2023-05-07T14:12:59;8.13;;;6.47;;
870;SDS011;422;51.280;7.236;2023-05-07T14:15:27;8.10;;;7.40;;
870;SDS011;422;51.280;7.236;2023-05-07T14:17:54;9.27;;;8.03;;
870;SDS011;422;51.280;7.236;2023-05-07T14:20:22;8.70;;;7.90;;
870;SDS011;422;51.280;7.236;2023-05-07T14:22:51;13.10;;;11.80;;
870;SDS011;422;51.280;7.236;2023-05-07T14:25:18;12.20;;;10.67;;
870;SDS011;422;51.280;7.236;2023-05-07T14:27:45;11.80;;;10.60;;
870;SDS011;422;51.280;7.236;2023-05-07T14:30:13;13.70;;;10.10;;
870;SDS011;422;51.280;7.236;2023-05-07T14:32:40;11.50;;;10.30;;
870;SDS011;422;51.280;7.236;2023-05-07T14:35:07;10.90;;;9.90;;
870;SDS011;422;51.280;7.236;2023-05-07T14:37:35;10.43;;;9.33;;
870;SDS011;422;51.280;7.236;2023-05-07T14:40:04;10.23;;;9.23;;
870;SDS011;422;51.280;7.236;2023-05-07T14:42:32;11.13;;;10.03;;
870;SDS011;422;51.280;7.236;2023-05-07T14:44:59;10.10;;;9.10;;
870;SDS011;422;51.280;7.236;2023-05-07T14:47:26;10.40;;;9.40;;
870;SDS011;422;51.280;7.236;2023-05-07T14:49:54;10.13;;;9.13;;
870;SDS011;422;51.280;7.236;2023-05-07T14:52:22;9.40;;;8.50;;
870;SDS011;422;51.280;7.236;2023-05-07T14:54:49;9.63;;;8.83;;
870;SDS011;422;51.280;7.236;2023-05-07T14:57:18;8.97;;;8.07;;
870;SDS011;422;51.280;7.236;2023-05-07T14:59:45;8.60;;;7.90;;
870;SDS011;422;51.280;7.236;2023-05-07T15:02:13;9.57;;;8.77;;
870;SDS011;422;51.280;7.236;2023-05-07T15:04:40;9.23;;;8.33;;
870;SDS011;422;51.280;7.236;2023-05-07T15:07:10;9.40;;;8.50;;
870;SDS011;422;51.280;7.236;2023-05-07T15:09:40;9.50;;;8.40;;
870;SDS011;422;51.280;7.236;2023-05-07T15:12:07;9.73;;;8.73;;
870;SDS011;422;51.280;7.236;2023-05-07T15:14:36;9.13;;;8.33;;
870;SDS011;422;51.280;7.236;2023-05-07T15:17:03;8.13;;;7.37;;
870;SDS011;422;51.280;7.236;2023-05-07T15:19:31;8.57;;;7.77;;
870;SDS011;422;51.280;7.236;2023-05-07T15:21:58;8.30;;;7.60;;
870;SDS011;422;51.280;7.236;2023-05-07T15:24:27;8.43;;;7.60;;
870;SDS011;422;51.280;7.236;2023-05-07T15:26:54;9.07;;;8.10;;
870;SDS011;422;51.280;7.236;2023-05-07T15:29:23;10.37;;;8.27;;
870;SDS011;422;51.280;7.236;2023-05-07T15:31:51;7.80;;;7.00;;
870;SDS011;422;51.280;7.236;2023-05-07T15:34:20;8.63;;;7.40;;
870;SDS011;422;51.280;7.236;2023-05-07T15:36:49;7.30;;;6.70;;
870;SDS011;422;51.280;7.236;2023-05-07T15:39:16;7.00;;;6.37;;
870;SDS011;422;51.280;7.236;2023-05-07T15:41:43;8.43;;;6.63;;
870;SDS011;422;51.280;7.236;2023-05-07T15:44:10;7.67;;;6.97;;
870;SDS011;422;51.280;7.236;2023-05-07T15:46:38;7.70;;;6.90;;
870;SDS011;422;51.280;7.236;2023-05-07T15:49:06;10.70;;;8.07;;
870;SDS011;422;51.280;7.236;2023-05-07T15:51:34;14.03;;;12.57;;
870;SDS011;422;51.280;7.236;2023-05-07T15:54:01;17.77;;;15.87;;
870;SDS011;422;51.280;7.236;2023-05-07T15:56:29;11.33;;;10.23;;
870;SDS011;422;51.280;7.236;2023-05-07T15:58:57;11.60;;;10.40;;
870;SDS011;422;51.280;7.236;2023-05-07T16:01:25;9.60;;;8.20;;
870;SDS011;422;51.280;7.236;2023-05-07T16:03:52;9.53;;;8.63;;
870;SDS011;422;51.280;7.236;2023-05-07T16:06:20;9.57;;;8.67;;